createdAt,value
2022-08-28T00:00:29.231Z,101177.41
2022-08-28T00:05:32.364Z,101181.44
2022-08-28T00:10:34.278Z,101183.50
2022-08-28T00:15:37.980Z,101189.97
2022-08-28T00:20:40.436Z,101187.53
2022-08-28T00:25:42.224Z,101186.63
2022-08-28T00:30:49.427Z,101203.34
2022-08-28T00:35:54.376Z,101207.94
2022-08-28T00:40:59.881Z,101202.44
2022-08-28T00:46:06.165Z,101212.69
2022-08-28T00:51:08.391Z,101202.44
2022-08-28T00:56:13.329Z,101211.06
2022-08-28T01:01:15.341Z,101212.69
2022-08-28T01:06:18.383Z,101209.13
2022-08-28T01:11:20.572Z,101220.41
2022-08-28T01:16:22.769Z,101212.56
2022-08-28T01:21:39.742Z,101219.00
2022-08-28T01:26:42.272Z,101234.09
2022-08-28T01:31:44.012Z,101225.94
2022-08-28T01:36:45.849Z,101224.53
2022-08-28T01:41:49.596Z,101216.91
2022-08-28T01:46:53.588Z,101216.69
2022-08-28T01:51:55.568Z,101215.03
2022-08-28T01:56:58.575Z,101218.16
2022-08-28T02:02:00.441Z,101215.22
2022-08-28T02:07:02.410Z,101217.38
2022-08-28T02:12:04.706Z,101215.16
2022-08-28T02:17:06.470Z,101220.31
2022-08-28T02:22:07.974Z,101228.41
2022-08-28T02:27:09.997Z,101236.34
2022-08-28T02:32:12.181Z,101241.09
2022-08-28T02:37:14.130Z,101247.81
2022-08-28T02:42:15.923Z,101248.47
2022-08-28T02:47:20.256Z,101248.94
2022-08-28T02:52:22.122Z,101240.19
2022-08-28T02:57:23.714Z,101243.13
2022-08-28T03:02:26.204Z,101246.78
2022-08-28T03:07:30.198Z,101247.19
2022-08-28T03:12:32.037Z,101244.97
2022-08-28T03:17:33.868Z,101246.28
2022-08-28T03:22:38.141Z,101239.09
2022-08-28T03:27:40.213Z,101244.94
2022-08-28T03:32:41.908Z,101245.75
2022-08-28T03:37:43.772Z,101253.84
2022-08-28T03:42:53.226Z,101256.69
2022-08-28T03:47:55.181Z,101254.50
2022-08-28T03:52:57.038Z,101274.00
2022-08-28T03:57:58.782Z,101273.91
2022-08-28T04:03:00.528Z,101271.09
2022-08-28T04:08:03.328Z,101274.75
2022-08-28T04:13:05.167Z,101275.25
2022-08-28T04:18:07.370Z,101277.03
2022-08-28T04:23:09.263Z,101288.63
2022-08-28T04:28:10.926Z,101294.13
2022-08-28T04:33:12.644Z,101297.66
2022-08-28T04:38:14.223Z,101290.97
2022-08-28T04:43:15.951Z,101302.69
2022-08-28T04:48:18.385Z,101305.94
2022-08-28T04:53:20.714Z,101314.38
2022-08-28T04:58:23.968Z,101313.22
2022-08-28T05:03:28.521Z,101316.84
2022-08-28T05:08:30.288Z,101322.13
2022-08-28T05:13:32.013Z,101321.53
2022-08-28T05:18:34.066Z,101319.06
2022-08-28T05:23:35.639Z,101329.38
2022-08-28T05:28:37.193Z,101335.91
2022-08-28T05:33:39.131Z,101343.91
2022-08-28T05:38:51.245Z,101350.09
2022-08-28T05:43:59.693Z,101352.53
2022-08-28T05:49:01.631Z,101355.69
2022-08-28T05:54:03.882Z,101364.59
2022-08-28T05:59:06.699Z,101364.94
2022-08-28T06:04:15.168Z,101371.00
2022-08-28T06:09:29.691Z,101371.38
2022-08-28T06:14:32.600Z,101372.22
2022-08-28T06:19:41.123Z,101368.44
2022-08-28T06:24:43.129Z,101378.34
2022-08-28T06:29:44.587Z,101390.22
2022-08-28T06:34:45.969Z,101389.28
2022-08-28T06:39:47.380Z,101387.81
2022-08-28T06:44:48.912Z,101394.16
2022-08-28T06:49:50.428Z,101394.13
2022-08-28T06:54:55.606Z,101392.91
2022-08-28T06:59:58.444Z,101390.41
2022-08-28T07:04:59.975Z,101397.13
2022-08-28T07:10:03.532Z,101391.78
2022-08-28T07:15:05.645Z,101397.13
2022-08-28T07:20:07.673Z,101398.03
2022-08-28T07:25:10.516Z,101406.56
2022-08-28T07:30:12.186Z,101407.59
2022-08-28T07:35:13.676Z,101420.53
2022-08-28T07:40:15.600Z,101415.25
2022-08-28T07:45:17.202Z,101421.31
2022-08-28T07:50:18.770Z,101432.13
2022-08-28T07:55:20.163Z,101439.00
2022-08-28T08:00:22.446Z,101441.72
2022-08-28T08:05:23.913Z,101437.84
2022-08-28T08:10:25.439Z,101442.50
2022-08-28T08:15:34.365Z,101450.78
2022-08-28T08:20:35.887Z,101450.84
2022-08-28T08:25:37.313Z,101452.91
2022-08-28T08:30:38.789Z,101455.41
2022-08-28T08:35:40.215Z,101458.66
2022-08-28T08:40:41.729Z,101460.56
2022-08-28T08:45:46.574Z,101460.28
2022-08-28T08:50:48.565Z,101462.13
2022-08-28T08:55:55.084Z,101465.19
2022-08-28T09:01:03.930Z,101474.16
2022-08-28T09:06:20.464Z,101474.78
2022-08-28T09:11:29.723Z,101473.38
2022-08-28T09:16:51.604Z,101475.06
2022-08-28T09:21:53.603Z,101471.38
2022-08-28T09:27:05.793Z,101474.09
2022-08-28T09:32:30.444Z,101482.56
2022-08-28T09:37:33.467Z,101484.06
2022-08-28T09:42:34.948Z,101481.81
2022-08-28T09:47:47.343Z,101476.06
2022-08-28T09:52:50.108Z,101476.41
2022-08-28T09:57:52.989Z,101470.91
2022-08-28T10:03:14.515Z,101474.06
2022-08-28T10:08:45.277Z,101475.47
2022-08-28T10:14:01.248Z,101461.47
2022-08-28T10:25:37.347Z,101464.50
2022-08-28T10:31:33.624Z,101464.50
2022-08-28T10:36:45.806Z,101467.88
2022-08-28T10:47:58.190Z,101459.81
2022-08-28T10:53:10.369Z,101462.19
2022-08-28T10:58:23.996Z,101455.66
2022-08-28T11:03:51.074Z,101457.91
2022-08-28T11:08:58.528Z,101451.38
2022-08-28T11:14:12.214Z,101463.84
2022-08-28T11:19:43.879Z,101465.97
2022-08-28T11:25:13.483Z,101463.25
2022-08-28T11:30:38.590Z,101465.66
2022-08-28T11:35:48.526Z,101467.47
2022-08-28T11:40:55.122Z,101463.56
2022-08-28T11:45:59.223Z,101466.56
2022-08-28T11:51:17.677Z,101465.53
2022-08-28T11:56:34.190Z,101463.59
2022-08-28T12:01:36.180Z,101464.13
2022-08-28T12:07:12.574Z,101470.03
2022-08-28T12:12:22.825Z,101458.94
2022-08-28T12:17:30.538Z,101464.19
2022-08-28T12:23:04.326Z,101454.19
2022-08-28T12:28:18.630Z,101457.53
2022-08-28T12:33:39.395Z,101451.84
2022-08-28T12:38:41.083Z,101445.88
2022-08-28T12:43:47.056Z,101447.06
2022-08-28T12:48:56.541Z,101438.59
2022-08-28T12:54:03.909Z,101439.53
2022-08-28T12:59:27.190Z,101439.78
2022-08-28T13:04:36.493Z,101431.56
2022-08-28T13:09:44.789Z,101423.56
2022-08-28T13:14:46.452Z,101421.38
2022-08-28T13:20:01.831Z,101430.63
2022-08-28T13:25:04.291Z,101422.25
2022-08-28T13:30:28.858Z,101416.59
2022-08-28T13:35:39.736Z,101414.69
2022-08-28T13:40:58.450Z,101412.31
2022-08-28T13:46:00.702Z,101411.66
2022-08-28T13:51:10.371Z,101406.13
2022-08-28T13:56:12.406Z,101391.41
2022-08-28T14:01:16.866Z,101398.31
2022-08-28T14:06:32.069Z,101385.16
2022-08-28T14:11:33.590Z,101378.81
2022-08-28T14:16:39.708Z,101382.03
2022-08-28T14:21:42.692Z,101375.38
2022-08-28T14:26:44.348Z,101363.66
2022-08-28T14:31:46.741Z,101372.25
2022-08-28T14:36:52.924Z,101368.03
2022-08-28T14:41:54.907Z,101366.31
2022-08-28T14:47:05.698Z,101360.47
2022-08-28T14:52:07.259Z,101366.22
2022-08-28T14:57:09.843Z,101368.13
2022-08-28T15:02:11.301Z,101364.06
2022-08-28T15:07:12.720Z,101363.28
2022-08-28T15:12:14.347Z,101357.53
2022-08-28T15:17:18.263Z,101355.47
2022-08-28T15:22:27.223Z,101361.34
2022-08-28T15:27:29.277Z,101355.16
2022-08-28T15:32:30.729Z,101356.31
2022-08-28T15:37:32.222Z,101345.69
2022-08-28T15:42:33.836Z,101341.84
2022-08-28T15:47:36.417Z,101355.94
2022-08-28T15:52:37.875Z,101352.81
2022-08-28T15:57:39.278Z,101344.44
2022-08-28T16:02:40.725Z,101346.78
2022-08-28T16:07:42.383Z,101351.06
2022-08-28T16:12:43.769Z,101344.03
2022-08-28T16:17:49.330Z,101337.00
2022-08-28T16:22:51.272Z,101332.16
2022-08-28T16:27:52.662Z,101338.63
2022-08-28T16:32:55.153Z,101338.84
2022-08-28T16:37:56.998Z,101340.56
2022-08-28T16:42:58.457Z,101334.53
2022-08-28T16:48:00.684Z,101349.53
2022-08-28T16:53:06.727Z,101346.41
2022-08-28T16:58:08.844Z,101337.69
2022-08-28T17:03:10.332Z,101337.97
2022-08-28T17:08:11.926Z,101337.56
2022-08-28T17:13:13.514Z,101331.28
2022-08-28T17:18:15.151Z,101333.06
2022-08-28T17:23:17.014Z,101338.50
2022-08-28T17:28:18.437Z,101334.91
2022-08-28T17:33:19.989Z,101348.91
2022-08-28T17:38:22.022Z,101341.41
2022-08-28T17:43:23.421Z,101349.03
2022-08-28T17:48:24.909Z,101354.50
2022-08-28T17:53:27.897Z,101355.91
2022-08-28T17:58:29.449Z,101355.13
2022-08-28T18:03:31.582Z,101351.34
2022-08-28T18:08:39.902Z,101357.88
2022-08-28T18:13:41.951Z,101364.66
2022-08-28T18:18:43.550Z,101363.00
2022-08-28T18:23:45.401Z,101366.78
2022-08-28T18:28:47.198Z,101371.13
2022-08-28T18:33:49.301Z,101377.28
2022-08-28T18:38:51.816Z,101380.81
2022-08-28T18:43:54.564Z,101389.19
2022-08-28T18:48:56.524Z,101397.56
2022-08-28T18:53:59.817Z,101402.91
2022-08-28T18:59:02.219Z,101402.31
2022-08-28T19:04:04.006Z,101417.94
2022-08-28T19:09:05.442Z,101417.59
2022-08-28T19:14:06.886Z,101415.63
2022-08-28T19:19:08.902Z,101429.09
2022-08-28T19:24:10.829Z,101428.16
2022-08-28T19:29:12.496Z,101431.03
2022-08-28T19:34:14.001Z,101426.63
2022-08-28T19:39:15.438Z,101432.84
2022-08-28T19:44:17.128Z,101444.56
2022-08-28T19:49:18.602Z,101451.97
2022-08-28T19:54:20.214Z,101454.59
2022-08-28T19:59:25.220Z,101457.50
2022-08-28T20:04:29.877Z,101464.50
2022-08-28T20:09:31.305Z,101474.16
2022-08-28T20:14:32.766Z,101478.03
2022-08-28T20:19:34.347Z,101478.81
2022-08-28T20:24:37.447Z,101483.59
2022-08-28T20:29:38.859Z,101486.03
2022-08-28T20:34:44.387Z,101484.28
2022-08-28T20:39:46.075Z,101486.09
2022-08-28T20:44:47.662Z,101485.63
2022-08-28T20:49:49.114Z,101490.91
2022-08-28T20:54:50.599Z,101502.88
2022-08-28T20:59:52.295Z,101509.16
2022-08-28T21:04:54.755Z,101510.44
2022-08-28T21:10:05.002Z,101514.91
2022-08-28T21:15:11.187Z,101515.66
2022-08-28T21:20:14.729Z,101524.75
2022-08-28T21:25:16.850Z,101530.31
2022-08-28T21:30:20.936Z,101537.72
2022-08-28T21:35:22.600Z,101530.50
2022-08-28T21:40:24.062Z,101536.72
2022-08-28T21:45:25.573Z,101542.25
2022-08-28T21:50:27.121Z,101547.28
2022-08-28T21:55:29.400Z,101536.25
2022-08-28T22:00:30.886Z,101546.25
2022-08-28T22:05:32.575Z,101554.22
2022-08-28T22:10:35.507Z,101555.97
2022-08-28T22:15:42.839Z,101549.88
2022-08-28T22:20:45.543Z,101559.84
2022-08-28T22:25:46.977Z,101561.38
2022-08-28T22:30:48.481Z,101559.38
2022-08-28T22:35:51.728Z,101555.28
2022-08-28T22:40:53.183Z,101560.91
2022-08-28T22:45:54.913Z,101557.13
2022-08-28T22:51:10.456Z,101551.72
2022-08-28T22:56:12.977Z,101552.03
2022-08-28T23:01:19.763Z,101542.63
2022-08-28T23:06:21.174Z,101554.47
2022-08-28T23:11:22.923Z,101554.69
2022-08-28T23:16:24.492Z,101560.13
2022-08-28T23:21:26.623Z,101555.72
2022-08-28T23:26:28.077Z,101555.81
2022-08-28T23:31:29.489Z,101546.53
2022-08-28T23:36:31.150Z,101554.09
2022-08-28T23:41:33.266Z,101553.38
2022-08-28T23:46:35.080Z,101557.78
2022-08-28T23:51:37.704Z,101550.72
2022-08-28T23:56:39.258Z,101567.69
